createdAt,value
2023-03-05T00:01:37.159Z,87.25
2023-03-05T00:06:41.633Z,103.25
2023-03-05T00:11:46.272Z,105.50
2023-03-05T00:16:50.836Z,109.50
2023-03-05T00:21:55.499Z,102.75
2023-03-05T00:27:00.067Z,103.00
2023-03-05T00:32:04.764Z,112.00
2023-03-05T00:37:09.516Z,99.00
2023-03-05T00:42:14.155Z,114.00
2023-03-05T00:47:19.699Z,95.50
2023-03-05T01:47:48.845Z,129.75
2023-03-05T01:53:01.047Z,127.25
2023-03-05T01:58:08.409Z,117.25
2023-03-05T02:03:13.900Z,105.00
2023-03-05T02:08:19.992Z,117.00
2023-03-05T02:13:26.554Z,96.00
2023-03-05T02:18:31.370Z,114.00
2023-03-05T02:23:40.279Z,103.50
2023-03-05T02:28:47.122Z,103.25
2023-03-05T02:33:52.419Z,106.75
2023-03-05T02:38:58.448Z,109.00
2023-03-05T02:44:05.281Z,100.50
2023-03-05T02:49:10.726Z,93.25
2023-03-05T02:54:15.829Z,95.25
2023-03-05T02:59:20.669Z,98.75
2023-03-05T03:04:25.457Z,96.50
2023-03-05T03:09:30.464Z,94.00
2023-03-05T03:14:40.384Z,94.75
2023-03-05T03:19:45.438Z,93.75
2023-03-05T03:24:50.133Z,117.25
2023-03-05T03:29:54.889Z,116.00
2023-03-05T03:34:59.604Z,91.25
2023-03-05T03:40:06.881Z,92.50
2023-03-05T03:45:11.756Z,95.75
2023-03-05T03:50:16.600Z,108.50
2023-03-05T03:55:21.412Z,91.25
2023-03-05T04:00:26.041Z,88.00
2023-03-05T04:05:30.588Z,88.00
2023-03-05T04:10:35.326Z,80.25
2023-03-05T04:15:40.124Z,82.50
2023-03-05T04:20:44.805Z,81.25
2023-03-05T04:25:49.453Z,86.00
2023-03-05T04:30:54.325Z,83.25
2023-03-05T04:35:59.062Z,88.75
2023-03-05T04:41:03.730Z,77.50
2023-03-05T04:46:08.362Z,94.25
2023-03-05T04:51:13.306Z,107.25
2023-03-05T04:56:17.996Z,99.00
2023-03-05T05:01:24.606Z,108.25
2023-03-05T05:06:31.665Z,140.50
2023-03-05T05:11:36.234Z,208.67
2023-03-05T05:16:43.386Z,175.00
2023-03-05T05:21:49.947Z,159.67
2023-03-05T05:26:56.392Z,172.33
2023-03-05T05:32:04.042Z,157.00
2023-03-05T05:37:11.372Z,155.33
2023-03-05T05:42:15.998Z,139.33
2023-03-05T05:47:21.716Z,144.33
2023-03-05T05:52:26.284Z,136.00
2023-03-05T05:57:31.028Z,141.33
2023-03-05T06:02:37.212Z,135.50
2023-03-05T06:07:41.711Z,126.25
2023-03-05T06:12:46.665Z,131.00
2023-03-05T06:17:55.869Z,129.50
2023-03-05T06:23:00.329Z,119.75
2023-03-05T06:28:05.189Z,117.50
2023-03-05T06:33:10.225Z,111.00
2023-03-05T06:38:15.062Z,106.75
2023-03-05T06:43:19.828Z,112.50
2023-03-05T06:48:24.437Z,106.00
2023-03-05T06:53:29.326Z,109.75
2023-03-05T06:58:33.972Z,110.25
2023-03-05T07:03:38.870Z,109.00
2023-03-05T07:08:44.951Z,107.25
2023-03-05T07:13:50.057Z,108.75
2023-03-05T07:18:55.461Z,108.50
2023-03-05T07:24:01.282Z,94.50
2023-03-05T07:29:05.969Z,103.00
2023-03-05T07:34:11.565Z,95.75
2023-03-05T07:39:16.201Z,107.50
2023-03-05T07:44:21.617Z,91.75
2023-03-05T07:49:26.143Z,107.50
2023-03-05T07:54:31.095Z,93.50
2023-03-05T07:59:36.098Z,85.75
2023-03-05T08:04:41.987Z,95.75
2023-03-05T08:09:47.126Z,92.00
2023-03-05T08:14:52.845Z,173.00
2023-03-05T08:19:59.681Z,133.50
2023-03-05T08:25:04.641Z,126.25
2023-03-05T08:30:09.971Z,109.75
2023-03-05T08:35:14.547Z,107.00
2023-03-05T08:40:19.414Z,82.75
2023-03-05T08:45:24.917Z,96.25
2023-03-05T08:50:29.486Z,81.25
2023-03-05T08:55:34.942Z,75.75
2023-03-05T09:00:39.510Z,78.50
2023-03-05T09:05:44.170Z,94.75
2023-03-05T09:10:48.947Z,97.00
2023-03-05T09:15:57.305Z,86.00
2023-03-05T09:21:05.909Z,93.00
2023-03-05T09:26:11.468Z,80.25
2023-03-05T09:31:16.513Z,79.50
2023-03-05T09:36:25.920Z,82.00
2023-03-05T09:41:38.283Z,78.00
2023-03-05T09:46:58.300Z,74.75
2023-03-05T09:52:09.532Z,70.50
2023-03-05T09:57:19.840Z,70.00
2023-03-05T10:02:24.435Z,80.00
2023-03-05T10:07:33.926Z,97.00
2023-03-05T10:12:46.116Z,88.75
2023-03-05T10:17:50.762Z,79.25
2023-03-05T10:23:10.725Z,73.50
2023-03-05T10:28:22.600Z,108.25
2023-03-05T10:33:27.145Z,90.50
2023-03-05T10:38:50.023Z,82.00
2023-03-05T10:44:10.980Z,81.00
2023-03-05T10:49:22.782Z,84.50
2023-03-05T10:54:34.713Z,77.00
2023-03-05T10:59:39.578Z,99.75
2023-03-05T11:04:44.413Z,95.75
2023-03-05T11:10:09.056Z,87.25
2023-03-05T11:15:16.785Z,89.50
2023-03-05T11:20:33.026Z,93.75
2023-03-05T11:25:50.475Z,82.25
2023-03-05T11:31:01.505Z,83.75
2023-03-05T11:36:23.302Z,88.50
2023-03-05T11:41:36.449Z,80.00
2023-03-05T11:46:44.308Z,82.75
2023-03-05T11:51:57.676Z,82.50
2023-03-05T11:57:02.753Z,87.00
2023-03-05T12:02:19.290Z,92.50
2023-03-05T12:07:34.661Z,81.25
2023-03-05T12:12:48.188Z,86.25
2023-03-05T12:18:01.695Z,80.50
2023-03-05T12:23:06.439Z,83.50
2023-03-05T12:28:16.904Z,84.00
2023-03-05T12:33:41.071Z,77.50
2023-03-05T12:38:46.479Z,77.00
2023-03-05T12:44:09.255Z,75.75
2023-03-05T12:49:31.981Z,74.75
2023-03-05T12:54:43.601Z,72.50
2023-03-05T13:00:00.542Z,71.25
2023-03-05T13:05:10.620Z,80.00
2023-03-05T13:10:29.330Z,70.50
2023-03-05T13:15:34.981Z,73.75
2023-03-05T13:20:41.162Z,69.50
2023-03-05T13:25:46.688Z,73.25
2023-03-05T13:30:59.586Z,66.25
2023-03-05T13:36:05.012Z,73.50
2023-03-05T13:41:19.637Z,65.75
2023-03-05T13:46:27.404Z,69.00
2023-03-05T13:51:45.691Z,66.75
2023-03-05T13:56:51.790Z,68.50
2023-03-05T14:01:57.782Z,69.50
2023-03-05T14:07:05.008Z,64.75
2023-03-05T14:12:29.698Z,68.75
2023-03-05T14:17:38.412Z,69.25
2023-03-05T14:22:44.879Z,69.00
2023-03-05T14:27:50.570Z,63.25
2023-03-05T14:32:57.136Z,68.75
2023-03-05T14:38:02.688Z,70.75
2023-03-05T14:43:09.011Z,68.50
2023-03-05T14:48:20.492Z,70.25
2023-03-05T14:53:30.574Z,72.75
2023-03-05T14:58:37.192Z,70.75
2023-03-05T15:03:43.315Z,76.25
2023-03-05T15:08:48.845Z,76.25
2023-03-05T15:13:54.466Z,73.00
2023-03-05T15:19:00.092Z,73.25
2023-03-05T15:24:05.552Z,75.00
2023-03-05T15:29:11.026Z,76.00
2023-03-05T15:34:16.224Z,72.00
2023-03-05T15:39:21.410Z,78.25
2023-03-05T15:44:26.663Z,74.00
2023-03-05T15:49:31.622Z,71.50
2023-03-05T15:54:37.892Z,74.75
2023-03-05T15:59:43.031Z,72.00
2023-03-05T16:04:48.610Z,76.75
2023-03-05T16:09:54.379Z,75.75
2023-03-05T16:14:59.496Z,77.25
2023-03-05T16:20:05.129Z,80.75
2023-03-05T16:25:10.202Z,77.50
2023-03-05T16:30:19.150Z,79.50
2023-03-05T16:35:24.197Z,84.25
2023-03-05T16:40:44.445Z,81.25
2023-03-05T16:45:54.298Z,81.75
2023-03-05T16:51:00.243Z,77.25
2023-03-05T16:56:06.303Z,77.25
2023-03-05T17:01:16.219Z,72.50
2023-03-05T17:06:22.997Z,75.00
2023-03-05T17:11:28.482Z,76.00
2023-03-05T17:16:34.619Z,72.00
2023-03-05T17:21:41.965Z,71.25
2023-03-05T17:26:48.070Z,74.75
2023-03-05T17:31:56.064Z,74.00
2023-03-05T17:37:01.116Z,77.50
2023-03-05T17:42:06.147Z,72.25
2023-03-05T17:47:11.005Z,68.00
2023-03-05T17:52:15.966Z,73.75
2023-03-05T17:57:24.217Z,71.50
2023-03-05T18:02:28.892Z,71.25
2023-03-05T18:07:34.037Z,71.50
2023-03-05T18:12:39.460Z,70.50
2023-03-05T18:17:44.570Z,76.25
2023-03-05T18:22:49.310Z,73.75
2023-03-05T18:27:54.955Z,74.00
2023-03-05T18:32:59.956Z,73.50
2023-03-05T18:38:04.729Z,70.50
2023-03-05T18:43:09.463Z,75.00
2023-03-05T18:48:14.265Z,76.75
2023-03-05T18:53:18.998Z,77.50
2023-03-05T18:58:25.687Z,74.75
2023-03-05T19:03:30.837Z,79.25
2023-03-05T19:08:35.545Z,78.75
2023-03-05T19:13:50.329Z,78.75
2023-03-05T19:19:15.017Z,78.50
2023-03-05T19:24:19.641Z,79.75
2023-03-05T19:29:25.237Z,78.50
2023-03-05T19:34:29.872Z,83.50
2023-03-05T19:39:35.442Z,81.75
2023-03-05T19:44:40.235Z,84.00
2023-03-05T19:49:44.934Z,86.75
2023-03-05T19:54:49.842Z,82.00
2023-03-05T19:59:54.870Z,78.25
2023-03-05T20:04:59.499Z,77.75
2023-03-05T20:10:04.293Z,78.75
2023-03-05T20:15:09.192Z,80.25
2023-03-05T20:20:17.762Z,79.25
2023-03-05T20:25:26.139Z,77.00
2023-03-05T20:30:30.844Z,77.75
2023-03-05T20:35:35.610Z,82.25
2023-03-05T20:40:40.227Z,82.00
2023-03-05T20:45:44.947Z,79.50
2023-03-05T20:50:49.662Z,70.75
2023-03-05T20:55:54.949Z,78.75
2023-03-05T21:00:59.600Z,78.50
2023-03-05T21:06:05.181Z,74.50
2023-03-05T21:11:10.648Z,77.50
2023-03-05T21:16:17.362Z,78.75
2023-03-05T21:21:22.142Z,74.75
2023-03-05T21:31:47.946Z,82.75
2023-03-05T21:36:52.562Z,94.25
2023-03-05T21:41:57.525Z,83.50
2023-03-05T21:47:01.981Z,80.25
2023-03-05T21:52:15.333Z,84.50
2023-03-05T21:57:19.904Z,76.75
2023-03-05T22:02:25.068Z,79.75
2023-03-05T22:07:29.723Z,74.50
2023-03-05T22:12:57.792Z,76.50
2023-03-05T22:18:02.580Z,76.75
2023-03-05T22:23:07.506Z,82.25
2023-03-05T22:28:13.128Z,75.00
2023-03-05T22:33:17.776Z,72.25
2023-03-05T22:38:22.425Z,76.00
2023-03-05T22:43:26.983Z,82.75
2023-03-05T22:48:31.562Z,77.75
2023-03-05T22:53:36.318Z,85.25
2023-03-05T22:58:41.151Z,100.50
2023-03-05T23:03:45.955Z,110.25
2023-03-05T23:08:50.759Z,118.25
2023-03-05T23:13:55.459Z,134.75
2023-03-05T23:19:00.672Z,113.00
2023-03-05T23:24:05.399Z,131.00
2023-03-05T23:29:10.270Z,120.25
2023-03-05T23:34:14.880Z,112.50
2023-03-05T23:39:19.473Z,118.75
2023-03-05T23:44:24.134Z,115.00
2023-03-05T23:49:28.860Z,124.00
2023-03-05T23:54:33.464Z,127.75
2023-03-05T23:59:38.082Z,116.50
